createdAt,value
2023-03-07T00:00:08.191Z,20.10
2023-03-07T00:02:35.123Z,14.60
2023-03-07T00:05:01.808Z,18.23
2023-03-07T00:07:28.530Z,20.60
2023-03-07T00:09:55.126Z,19.97
2023-03-07T00:12:22.314Z,23.83
2023-03-07T00:14:48.999Z,21.27
2023-03-07T00:17:15.638Z,26.60
2023-03-07T00:19:43.596Z,20.43
2023-03-07T00:22:14.201Z,20.90
2023-03-07T00:24:41.412Z,23.63
2023-03-07T00:27:08.822Z,16.37
2023-03-07T00:29:35.453Z,18.20
2023-03-07T00:32:02.354Z,20.50
2023-03-07T00:34:29.082Z,20.40
2023-03-07T00:36:55.817Z,18.90
2023-03-07T00:39:22.646Z,15.87
2023-03-07T00:41:49.427Z,16.90
2023-03-07T00:44:16.156Z,18.03
2023-03-07T00:46:42.815Z,17.80
2023-03-07T00:49:09.821Z,16.23
2023-03-07T00:51:36.418Z,17.00
2023-03-07T00:54:03.926Z,14.90
2023-03-07T00:56:30.977Z,16.40
2023-03-07T00:58:57.715Z,16.73
2023-03-07T01:01:25.604Z,15.73
2023-03-07T01:03:53.863Z,18.90
2023-03-07T01:06:23.810Z,16.13
2023-03-07T01:08:51.631Z,17.53
2023-03-07T01:11:18.507Z,18.03
2023-03-07T01:13:45.765Z,19.83
2023-03-07T01:16:16.915Z,17.90
2023-03-07T01:18:45.079Z,16.83
2023-03-07T01:21:21.723Z,20.63
2023-03-07T01:23:49.674Z,19.27
2023-03-07T01:26:22.354Z,16.10
2023-03-07T01:28:51.449Z,16.63
2023-03-07T01:31:18.214Z,17.40
2023-03-07T01:33:47.142Z,18.30
2023-03-07T01:36:30.247Z,14.93
2023-03-07T01:39:10.317Z,16.43
2023-03-07T01:41:40.101Z,17.93
2023-03-07T01:44:19.569Z,17.77
2023-03-07T01:46:54.399Z,17.00
2023-03-07T01:49:31.459Z,15.47
2023-03-07T01:52:11.231Z,16.43
2023-03-07T01:54:48.915Z,17.03
2023-03-07T01:57:24.841Z,21.17
2023-03-07T01:59:56.035Z,18.67
2023-03-07T02:02:24.463Z,17.07
2023-03-07T02:05:07.061Z,21.70
2023-03-07T02:07:41.135Z,16.37
2023-03-07T02:10:10.559Z,18.93
2023-03-07T02:12:38.382Z,20.53
2023-03-07T02:15:05.637Z,17.50
2023-03-07T02:17:32.408Z,16.07
2023-03-07T02:20:02.648Z,15.03
2023-03-07T02:22:30.690Z,17.23
2023-03-07T02:25:02.612Z,14.80
2023-03-07T02:27:35.087Z,16.93
2023-03-07T02:30:04.068Z,14.67
2023-03-07T02:32:31.484Z,16.80
2023-03-07T02:34:58.265Z,16.67
2023-03-07T02:37:38.419Z,15.33
2023-03-07T02:40:11.692Z,14.37
2023-03-07T02:42:42.230Z,14.83
2023-03-07T02:45:15.521Z,16.57
2023-03-07T02:47:44.168Z,14.87
2023-03-07T02:50:14.525Z,13.10
2023-03-07T02:52:43.857Z,15.07
2023-03-07T02:55:11.107Z,13.80
2023-03-07T02:57:42.194Z,11.20
2023-03-07T03:00:11.916Z,12.07
2023-03-07T03:02:38.778Z,13.67
2023-03-07T03:05:06.030Z,13.40
2023-03-07T03:07:32.607Z,12.67
2023-03-07T03:10:02.148Z,15.97
2023-03-07T03:12:31.242Z,13.50
2023-03-07T03:14:58.660Z,15.03
2023-03-07T03:17:25.365Z,12.83
2023-03-07T03:19:52.048Z,15.37
2023-03-07T03:22:18.765Z,15.70
2023-03-07T03:24:47.605Z,14.23
2023-03-07T03:27:16.846Z,16.30
2023-03-07T03:29:45.251Z,13.93
2023-03-07T03:32:12.433Z,14.60
2023-03-07T03:34:42.075Z,13.13
2023-03-07T03:37:08.756Z,14.50
2023-03-07T03:39:35.619Z,16.07
2023-03-07T03:42:02.523Z,14.87
2023-03-07T03:44:29.796Z,18.20
2023-03-07T03:46:57.538Z,15.20
2023-03-07T03:49:24.697Z,16.73
2023-03-07T03:51:53.882Z,15.60
2023-03-07T03:54:20.746Z,16.93
2023-03-07T03:56:47.363Z,15.93
2023-03-07T03:59:14.164Z,21.40
2023-03-07T04:01:41.397Z,14.90
2023-03-07T04:04:08.422Z,16.43
2023-03-07T04:06:35.380Z,13.20
2023-03-07T04:09:04.707Z,14.30
2023-03-07T04:11:32.470Z,15.73
2023-03-07T04:13:59.550Z,16.13
2023-03-07T04:16:26.491Z,15.70
2023-03-07T04:18:54.058Z,15.53
2023-03-07T04:21:22.360Z,14.47
2023-03-07T04:23:55.257Z,16.63
2023-03-07T04:26:23.748Z,17.37
2023-03-07T04:28:50.405Z,13.33
2023-03-07T04:31:28.722Z,18.57
2023-03-07T04:33:58.293Z,15.43
2023-03-07T04:36:25.254Z,14.97
2023-03-07T04:38:52.766Z,18.43
2023-03-07T04:41:23.056Z,14.67
2023-03-07T04:43:53.803Z,15.40
2023-03-07T04:46:22.874Z,18.00
2023-03-07T04:48:50.477Z,13.47
2023-03-07T04:51:18.112Z,14.77
2023-03-07T04:53:45.040Z,12.77
2023-03-07T04:56:13.972Z,15.07
2023-03-07T04:58:40.984Z,17.03
2023-03-07T05:01:08.013Z,19.20
2023-03-07T05:03:35.952Z,15.33
2023-03-07T05:06:10.382Z,14.50
2023-03-07T05:08:37.440Z,19.43
2023-03-07T05:11:04.272Z,13.57
2023-03-07T05:13:31.845Z,15.87
2023-03-07T05:15:59.524Z,15.20
2023-03-07T05:18:28.031Z,16.07
2023-03-07T05:20:56.877Z,15.80
2023-03-07T05:23:23.906Z,17.83
2023-03-07T05:25:51.704Z,15.83
2023-03-07T05:28:18.995Z,15.77
2023-03-07T05:30:46.780Z,13.20
2023-03-07T05:33:14.198Z,17.70
2023-03-07T05:35:42.019Z,14.83
2023-03-07T05:38:10.661Z,13.20
2023-03-07T05:40:37.461Z,17.40
2023-03-07T05:43:04.907Z,15.30
2023-03-07T05:45:32.162Z,16.13
2023-03-07T05:48:00.257Z,14.90
2023-03-07T05:50:27.173Z,13.73
2023-03-07T05:52:54.257Z,14.63
2023-03-07T05:55:23.852Z,14.80
2023-03-07T05:57:50.749Z,14.60
2023-03-07T06:00:18.168Z,13.27
2023-03-07T06:02:52.718Z,13.07
2023-03-07T06:05:19.591Z,17.43
2023-03-07T06:07:46.762Z,14.33
2023-03-07T06:10:14.866Z,12.77
2023-03-07T06:12:41.850Z,14.33
2023-03-07T06:15:09.000Z,16.67
2023-03-07T06:17:36.347Z,16.03
2023-03-07T06:20:04.194Z,14.73
2023-03-07T06:22:32.118Z,13.33
2023-03-07T06:24:59.103Z,16.70
2023-03-07T06:27:25.829Z,13.00
2023-03-07T06:29:52.802Z,13.40
2023-03-07T06:32:19.423Z,14.73
2023-03-07T06:34:46.118Z,17.03
2023-03-07T06:37:13.723Z,12.37
2023-03-07T06:39:40.547Z,12.23
2023-03-07T06:42:07.169Z,12.10
2023-03-07T06:44:34.929Z,13.00
2023-03-07T06:47:01.835Z,12.07
2023-03-07T06:49:28.426Z,12.83
2023-03-07T06:51:55.118Z,9.83
2023-03-07T06:54:21.781Z,13.43
2023-03-07T06:56:48.864Z,17.03
2023-03-07T06:59:19.804Z,12.27
2023-03-07T07:01:48.540Z,11.33
2023-03-07T07:04:15.785Z,14.77
2023-03-07T07:06:42.912Z,12.07
2023-03-07T07:09:12.570Z,15.63
2023-03-07T07:11:39.281Z,13.00
2023-03-07T07:14:09.924Z,10.27
2023-03-07T07:16:37.922Z,15.97
2023-03-07T07:19:05.333Z,12.80
2023-03-07T07:21:32.760Z,12.40
2023-03-07T07:23:59.404Z,9.93
2023-03-07T07:26:26.732Z,11.83
2023-03-07T07:28:53.636Z,13.60
2023-03-07T07:31:20.336Z,14.03
2023-03-07T07:33:47.101Z,11.43
2023-03-07T07:36:15.777Z,11.60
2023-03-07T07:38:42.791Z,9.23
2023-03-07T07:41:09.855Z,10.80
2023-03-07T07:43:36.581Z,11.57
2023-03-07T07:46:28.453Z,14.73
2023-03-07T07:48:55.763Z,10.67
2023-03-07T07:51:22.614Z,13.03
2023-03-07T07:53:49.272Z,11.03
2023-03-07T07:56:16.178Z,11.60
2023-03-07T07:58:42.849Z,10.63
2023-03-07T08:01:18.013Z,11.70
2023-03-07T08:03:44.876Z,12.00
2023-03-07T08:06:13.420Z,12.15
2023-03-07T08:08:40.247Z,9.17
2023-03-07T08:11:06.965Z,17.50
2023-03-07T08:13:33.660Z,11.27
2023-03-07T08:16:00.377Z,8.57
2023-03-07T08:18:26.986Z,13.27
2023-03-07T08:20:53.586Z,7.60
2023-03-07T08:23:20.168Z,12.13
2023-03-07T08:25:46.798Z,12.90
2023-03-07T08:28:13.421Z,10.13
2023-03-07T08:30:40.047Z,11.43
2023-03-07T08:33:07.311Z,10.97
2023-03-07T08:35:34.100Z,11.60
2023-03-07T08:38:01.167Z,13.63
2023-03-07T08:40:29.624Z,21.10
2023-03-07T08:42:56.308Z,9.10
2023-03-07T08:45:23.976Z,15.20
2023-03-07T08:47:55.400Z,10.93
2023-03-07T08:50:28.283Z,10.77
2023-03-07T08:52:54.960Z,22.30
2023-03-07T08:55:21.634Z,10.43
2023-03-07T08:57:48.447Z,8.43
2023-03-07T09:00:15.519Z,11.87
2023-03-07T09:02:42.422Z,18.23
2023-03-07T09:05:09.666Z,14.50
2023-03-07T09:07:36.336Z,12.67
2023-03-07T09:10:03.072Z,9.73
2023-03-07T09:12:30.245Z,14.77
2023-03-07T09:14:56.857Z,17.27
2023-03-07T09:17:23.513Z,10.27
2023-03-07T09:19:50.616Z,10.13
2023-03-07T09:22:17.750Z,12.20
2023-03-07T09:24:44.567Z,12.70
2023-03-07T09:27:11.476Z,12.90
2023-03-07T09:29:38.236Z,14.33
2023-03-07T09:32:05.261Z,11.77
2023-03-07T09:34:32.168Z,17.23
2023-03-07T09:36:58.912Z,10.37
2023-03-07T09:39:25.683Z,11.37
2023-03-07T09:42:05.713Z,12.50
2023-03-07T09:44:44.326Z,8.23
2023-03-07T09:48:11.083Z,14.93
2023-03-07T09:50:57.211Z,12.20
2023-03-07T09:53:41.144Z,9.30
2023-03-07T09:56:19.880Z,8.93
2023-03-07T09:58:51.706Z,11.63
2023-03-07T10:01:23.006Z,10.67
2023-03-07T10:04:01.159Z,10.83
2023-03-07T10:06:38.932Z,12.70
2023-03-07T10:09:18.578Z,11.10
2023-03-07T10:12:11.358Z,15.70
2023-03-07T10:15:08.812Z,9.80
2023-03-07T10:17:43.630Z,6.30
2023-03-07T10:20:24.109Z,17.57
2023-03-07T10:23:05.451Z,6.47
2023-03-07T10:25:40.735Z,11.07
2023-03-07T10:28:25.604Z,18.93
2023-03-07T10:30:58.092Z,11.77
2023-03-07T10:33:25.700Z,11.00
2023-03-07T10:36:20.207Z,14.43
2023-03-07T10:38:59.948Z,8.30
2023-03-07T10:41:27.159Z,10.87
2023-03-07T10:43:54.752Z,8.00
2023-03-07T10:46:27.504Z,11.47
2023-03-07T10:49:09.468Z,12.50
2023-03-07T10:51:50.543Z,16.77
2023-03-07T10:54:21.284Z,8.70
2023-03-07T10:57:05.523Z,8.07
2023-03-07T10:59:32.472Z,10.50
2023-03-07T11:02:01.302Z,9.27
2023-03-07T11:04:30.332Z,13.07
2023-03-07T11:07:00.503Z,13.07
2023-03-07T11:09:34.809Z,11.33
2023-03-07T11:12:04.644Z,9.73
2023-03-07T11:14:46.710Z,9.23
2023-03-07T11:17:25.158Z,10.03
2023-03-07T11:19:56.840Z,9.07
2023-03-07T11:22:27.517Z,8.67
2023-03-07T11:25:12.468Z,7.87
2023-03-07T11:27:54.388Z,7.97
2023-03-07T11:30:34.285Z,10.57
2023-03-07T11:33:15.520Z,8.43
2023-03-07T11:36:01.839Z,9.17
2023-03-07T11:38:55.106Z,6.97
2023-03-07T11:41:29.600Z,8.53
2023-03-07T11:44:25.835Z,6.80
2023-03-07T11:47:12.241Z,7.80
2023-03-07T11:49:45.388Z,11.63
2023-03-07T11:52:30.903Z,6.50
2023-03-07T11:55:20.880Z,7.83
2023-03-07T11:57:56.467Z,7.03
2023-03-07T12:00:32.448Z,6.13
2023-03-07T12:03:30.345Z,8.03
2023-03-07T12:06:11.107Z,8.70
2023-03-07T12:08:41.967Z,7.43
2023-03-07T12:11:27.158Z,7.10
2023-03-07T12:14:22.972Z,6.40
2023-03-07T12:17:10.563Z,11.70
2023-03-07T12:19:40.086Z,12.43
2023-03-07T12:22:22.049Z,8.07
2023-03-07T12:25:22.428Z,7.77
2023-03-07T12:28:15.878Z,9.63
2023-03-07T12:30:59.102Z,11.83
2023-03-07T12:33:39.558Z,7.00
2023-03-07T12:36:11.641Z,10.57
2023-03-07T12:39:13.416Z,6.93
2023-03-07T12:41:49.070Z,8.10
2023-03-07T12:44:42.951Z,8.73
2023-03-07T12:47:32.143Z,6.60
2023-03-07T12:50:14.938Z,7.03
2023-03-07T12:53:18.710Z,9.13
2023-03-07T12:55:55.757Z,8.07
2023-03-07T12:58:49.393Z,6.80
2023-03-07T13:01:23.213Z,7.47
2023-03-07T13:04:11.265Z,10.73
2023-03-07T13:06:39.801Z,12.43
2023-03-07T13:09:08.067Z,9.13
2023-03-07T13:11:34.866Z,10.03
2023-03-07T13:14:03.261Z,10.77
2023-03-07T13:16:44.781Z,12.33
2023-03-07T13:19:39.343Z,18.17
2023-03-07T13:22:14.732Z,9.93
2023-03-07T13:24:43.104Z,8.63
2023-03-07T13:27:18.469Z,9.87
2023-03-07T13:30:09.894Z,7.33
2023-03-07T13:32:51.694Z,8.13
2023-03-07T13:35:30.539Z,7.27
2023-03-07T13:38:15.498Z,7.57
2023-03-07T13:40:46.197Z,7.40
2023-03-07T13:43:19.242Z,9.47
2023-03-07T13:46:02.043Z,7.27
2023-03-07T13:48:31.030Z,8.60
2023-03-07T13:51:00.603Z,9.03
2023-03-07T13:53:39.445Z,8.53
2023-03-07T13:56:15.432Z,6.30
2023-03-07T13:59:06.869Z,7.43
2023-03-07T14:01:53.371Z,6.47
2023-03-07T14:04:41.099Z,7.97
2023-03-07T14:07:16.293Z,6.57
2023-03-07T14:09:49.830Z,6.80
2023-03-07T14:12:34.417Z,6.80
2023-03-07T14:15:22.490Z,10.60
2023-03-07T14:18:15.275Z,6.03
2023-03-07T14:20:59.627Z,7.23
2023-03-07T14:23:52.630Z,8.87
2023-03-07T14:26:36.874Z,9.67
2023-03-07T14:29:18.956Z,11.80
2023-03-07T14:31:46.838Z,15.77
2023-03-07T14:34:31.479Z,10.90
2023-03-07T14:37:16.841Z,10.13
2023-03-07T14:40:09.850Z,11.47
2023-03-07T14:42:47.997Z,14.50
2023-03-07T14:45:24.251Z,15.27
2023-03-07T14:48:06.235Z,9.67
2023-03-07T14:50:34.097Z,9.40
2023-03-07T14:53:23.376Z,9.37
2023-03-07T14:55:52.669Z,10.63
2023-03-07T14:58:29.277Z,9.40
2023-03-07T15:01:04.337Z,7.87
2023-03-07T15:03:32.110Z,8.03
2023-03-07T15:06:01.476Z,10.97
2023-03-07T15:08:35.195Z,8.00
2023-03-07T15:11:33.900Z,8.03
2023-03-07T15:14:08.624Z,10.37
2023-03-07T15:16:44.680Z,12.60
2023-03-07T15:19:19.232Z,8.17
2023-03-07T15:21:57.553Z,12.73
2023-03-07T15:24:36.496Z,7.77
2023-03-07T15:27:04.801Z,8.73
2023-03-07T15:29:33.119Z,11.10
2023-03-07T15:32:07.126Z,12.73
2023-03-07T15:34:37.291Z,10.33
2023-03-07T15:37:24.438Z,7.03
2023-03-07T15:40:09.240Z,8.23
2023-03-07T15:42:56.775Z,7.13
2023-03-07T15:45:38.543Z,8.93
2023-03-07T15:48:25.817Z,7.20
2023-03-07T15:51:06.302Z,12.13
2023-03-07T15:53:43.248Z,9.33
2023-03-07T15:56:37.494Z,7.87
2023-03-07T15:59:09.979Z,20.83
2023-03-07T16:01:36.659Z,10.60
2023-03-07T16:04:04.345Z,16.20
2023-03-07T16:06:38.670Z,13.10
2023-03-07T16:09:06.793Z,12.03
2023-03-07T16:11:33.729Z,12.00
2023-03-07T16:14:01.020Z,12.40
2023-03-07T16:16:30.082Z,8.07
2023-03-07T16:18:58.169Z,10.03
2023-03-07T16:21:26.266Z,11.13
2023-03-07T16:23:53.038Z,11.83
2023-03-07T16:26:22.575Z,14.47
2023-03-07T16:28:50.868Z,14.43
2023-03-07T16:31:18.762Z,10.97
2023-03-07T16:33:46.813Z,12.53
2023-03-07T16:36:14.938Z,12.00
2023-03-07T16:38:41.942Z,11.67
2023-03-07T16:41:21.088Z,10.03
2023-03-07T16:43:57.726Z,8.27
2023-03-07T16:46:26.002Z,9.30
2023-03-07T16:48:52.823Z,12.97
2023-03-07T16:51:21.833Z,7.80
2023-03-07T16:53:50.458Z,13.43
2023-03-07T16:56:27.346Z,9.50
2023-03-07T16:58:54.046Z,9.53
2023-03-07T17:01:20.693Z,10.07
2023-03-07T17:03:47.469Z,9.60
2023-03-07T17:06:16.484Z,12.63
2023-03-07T17:08:44.659Z,10.77
2023-03-07T17:11:20.828Z,11.13
2023-03-07T17:13:49.380Z,16.10
2023-03-07T17:16:17.015Z,13.80
2023-03-07T17:18:44.630Z,9.73
2023-03-07T17:21:16.843Z,10.77
2023-03-07T17:23:45.009Z,9.13
2023-03-07T17:26:19.061Z,9.83
2023-03-07T17:28:46.559Z,12.70
2023-03-07T17:31:13.457Z,10.50
2023-03-07T17:33:40.131Z,13.53
2023-03-07T17:36:12.265Z,9.37
2023-03-07T17:38:39.068Z,11.93
2023-03-07T17:41:05.701Z,11.23
2023-03-07T17:43:33.425Z,10.37
2023-03-07T17:46:00.742Z,10.90
2023-03-07T17:48:27.577Z,12.67
2023-03-07T17:50:54.296Z,11.13
2023-03-07T17:53:20.943Z,11.63
2023-03-07T17:55:47.668Z,10.70
2023-03-07T17:58:14.435Z,11.23
2023-03-07T18:00:41.072Z,9.43
2023-03-07T18:03:07.699Z,9.93
2023-03-07T18:05:34.333Z,9.13
2023-03-07T18:08:00.990Z,8.97
2023-03-07T18:10:28.312Z,10.10
2023-03-07T18:12:55.066Z,8.97
2023-03-07T18:15:22.836Z,9.80
2023-03-07T18:17:50.203Z,13.40
2023-03-07T18:20:19.217Z,10.57
2023-03-07T18:22:46.003Z,9.33
2023-03-07T18:25:15.756Z,8.83
2023-03-07T18:27:43.111Z,13.10
2023-03-07T18:30:11.781Z,9.10
2023-03-07T18:32:38.698Z,8.23
2023-03-07T18:35:06.332Z,11.77
2023-03-07T18:37:32.960Z,9.07
2023-03-07T18:39:59.761Z,9.63
2023-03-07T18:42:27.333Z,11.30
2023-03-07T18:44:54.484Z,8.53
2023-03-07T18:47:21.218Z,9.23
2023-03-07T18:49:53.898Z,14.17
2023-03-07T18:52:20.646Z,8.73
2023-03-07T18:54:48.574Z,9.20
2023-03-07T18:57:15.682Z,11.30
2023-03-07T18:59:42.515Z,8.03
2023-03-07T19:02:09.946Z,8.57
2023-03-07T19:04:36.660Z,7.83
2023-03-07T19:07:03.983Z,10.97
2023-03-07T19:09:31.597Z,8.70
2023-03-07T19:11:58.282Z,10.37
2023-03-07T19:14:26.300Z,11.10
2023-03-07T19:16:53.333Z,8.77
2023-03-07T19:19:20.155Z,10.40
2023-03-07T19:21:46.745Z,8.77
2023-03-07T19:24:14.731Z,10.87
2023-03-07T19:26:43.173Z,9.13
2023-03-07T19:29:12.934Z,9.90
2023-03-07T19:31:43.398Z,7.87
2023-03-07T19:34:10.302Z,8.77
2023-03-07T19:36:38.403Z,9.03
2023-03-07T19:39:05.654Z,10.00
2023-03-07T19:41:32.948Z,10.00
2023-03-07T19:44:00.567Z,8.10
2023-03-07T19:46:27.756Z,10.17
2023-03-07T19:48:54.476Z,12.70
2023-03-07T19:51:23.562Z,7.73
2023-03-07T19:53:51.081Z,8.83
2023-03-07T19:56:24.342Z,9.80
2023-03-07T19:58:51.216Z,9.40
2023-03-07T20:01:19.652Z,7.83
2023-03-07T20:03:47.381Z,7.63
2023-03-07T20:06:24.324Z,8.80
2023-03-07T20:08:52.662Z,9.90
2023-03-07T20:11:27.060Z,14.03
2023-03-07T20:13:55.891Z,9.63
2023-03-07T20:16:22.780Z,9.73
2023-03-07T20:18:50.867Z,9.73
2023-03-07T20:21:18.703Z,12.57
2023-03-07T20:23:47.019Z,8.40
2023-03-07T20:26:16.739Z,8.17
2023-03-07T20:28:43.720Z,15.40
2023-03-07T20:31:11.150Z,11.20
2023-03-07T20:33:39.732Z,12.90
2023-03-07T20:36:09.828Z,11.10
2023-03-07T20:38:37.328Z,11.93
2023-03-07T20:41:14.240Z,10.90
2023-03-07T20:43:40.904Z,8.70
2023-03-07T20:46:13.184Z,9.13
2023-03-07T20:48:41.125Z,10.97
2023-03-07T20:51:20.644Z,10.57
2023-03-07T20:53:49.257Z,11.17
2023-03-07T20:56:17.013Z,12.17
2023-03-07T20:58:43.902Z,8.90
2023-03-07T21:01:11.764Z,16.53
2023-03-07T21:03:38.579Z,11.70
2023-03-07T21:06:05.832Z,14.73
2023-03-07T21:08:35.479Z,12.47
2023-03-07T21:11:05.230Z,12.17
2023-03-07T21:13:34.849Z,9.63
2023-03-07T21:16:10.515Z,8.00
2023-03-07T21:18:37.938Z,15.00
2023-03-07T21:21:07.245Z,9.43
2023-03-07T21:23:34.423Z,9.67
2023-03-07T21:26:06.083Z,10.37
2023-03-07T21:28:34.176Z,8.10
2023-03-07T21:31:18.042Z,15.50
2023-03-07T21:33:47.281Z,13.20
2023-03-07T21:36:16.212Z,11.60
2023-03-07T21:38:44.754Z,11.27
2023-03-07T21:41:12.368Z,9.10
2023-03-07T21:43:39.127Z,10.07
2023-03-07T21:46:07.655Z,10.57
2023-03-07T21:48:34.597Z,8.43
2023-03-07T21:51:01.650Z,8.40
2023-03-07T21:53:29.046Z,11.77
2023-03-07T21:56:04.200Z,11.70
2023-03-07T21:58:31.636Z,10.07
2023-03-07T22:00:58.849Z,10.10
2023-03-07T22:03:27.305Z,18.47
2023-03-07T22:05:56.882Z,9.40
2023-03-07T22:08:24.090Z,14.40
2023-03-07T22:11:00.157Z,10.83
2023-03-07T22:13:27.971Z,8.97
2023-03-07T22:15:59.481Z,10.33
2023-03-07T22:18:26.708Z,9.70
2023-03-07T22:20:55.070Z,9.60
2023-03-07T22:23:23.043Z,10.07
2023-03-07T22:25:49.736Z,11.27
2023-03-07T22:28:19.190Z,10.17
2023-03-07T22:30:47.241Z,7.60
2023-03-07T22:33:13.960Z,7.90
2023-03-07T22:35:40.653Z,9.07
2023-03-07T22:38:27.499Z,7.70
2023-03-07T22:40:54.421Z,13.43
2023-03-07T22:43:21.088Z,14.30
2023-03-07T22:45:51.881Z,8.77
2023-03-07T22:48:18.959Z,8.60
2023-03-07T22:50:45.561Z,10.77
2023-03-07T22:53:12.328Z,8.10
2023-03-07T22:55:43.428Z,9.73
2023-03-07T22:58:11.230Z,7.17
2023-03-07T23:00:40.858Z,7.77
2023-03-07T23:03:07.561Z,8.17
2023-03-07T23:05:34.775Z,6.47
2023-03-07T23:08:02.414Z,7.40
2023-03-07T23:10:29.934Z,7.97
2023-03-07T23:12:56.604Z,7.00
2023-03-07T23:15:24.514Z,9.40
2023-03-07T23:17:51.703Z,9.33
2023-03-07T23:20:25.328Z,10.17
2023-03-07T23:22:52.896Z,9.63
2023-03-07T23:25:20.137Z,6.53
2023-03-07T23:27:46.783Z,8.27
2023-03-07T23:30:13.723Z,7.53
2023-03-07T23:32:40.367Z,11.67
2023-03-07T23:35:07.396Z,9.37
2023-03-07T23:37:34.125Z,6.80
2023-03-07T23:40:01.497Z,9.13
2023-03-07T23:42:28.269Z,11.27
2023-03-07T23:44:55.014Z,12.43
2023-03-07T23:47:21.606Z,7.40
2023-03-07T23:49:48.120Z,11.90
2023-03-07T23:52:14.698Z,9.50
2023-03-07T23:54:44.612Z,11.30
2023-03-07T23:57:11.232Z,11.43
2023-03-07T23:59:37.769Z,11.07
